Time,TemperatureF,DewpointF,PressureIn,WindDirection,WindDirectionDegrees,WindSpeedMPH,WindSpeedGustMPH,Humidity,HourlyPrecipIn,Conditions,Clouds,dailyrainin,SolarRadiationWatts/m^2,SoftwareType,DateUTC
2013-09-09 00:01:00,65.7,56.0,29.79,SE,126,0.0,2.0,71,0.00,,,0.00,0,Wunderground v.1.15,2013-09-09 07:01:00,
2013-09-09 00:06:00,65.4,55.7,29.79,SE,129,1.0,3.0,71,0.00,,,0.00,0,Wunderground v.1.15,2013-09-09 07:06:00,
2013-09-09 00:11:00,65.2,55.9,29.79,ESE,117,2.0,4.0,72,0.00,,,0.00,0,Wunderground v.1.15,2013-09-09 07:11:00,
2013-09-09 00:17:00,65.3,55.7,29.78,ESE,116,2.0,4.0,71,0.00,,,0.00,0,Wunderground v.1.15,2013-09-09 07:17:00,
2013-09-09 00:22:00,65.5,55.8,29.78,ESE,102,2.0,2.0,71,0.00,,,0.00,0,Wunderground v.1.15,2013-09-09 07:22:00,
2013-09-09 00:27:00,65.5,55.8,29.78,SE,128,2.0,4.0,71,0.00,,,0.00,0,Wunderground v.1.15,2013-09-09 07:27:00,
2013-09-09 00:33:00,65.3,55.7,29.79,ESE,110,2.0,2.0,71,0.00,,,0.00,0,Wunderground v.1.15,2013-09-09 07:33:00,
2013-09-09 00:38:00,65.3,55.7,29.79,SSE,152,1.0,3.0,71,0.00,,,0.00,0,Wunderground v.1.15,2013-09-09 07:38:00,
2013-09-09 00:43:00,65.6,55.5,29.79,ESE,123,1.0,1.0,70,0.00,,,0.00,0,Wunderground v.1.15,2013-09-09 07:43:00,
2013-09-09 00:49:00,65.5,55.5,29.78,South,169,1.0,2.0,70,0.00,,,0.00,0,Wunderground v.1.15,2013-09-09 07:49:00,
2013-09-09 00:54:00,65.3,55.3,29.78,ESE,102,1.0,2.0,70,0.00,,,0.00,0,Wunderground v.1.15,2013-09-09 07:54:00,
2013-09-09 00:59:00,65.3,54.9,29.78,ESE,103,0.0,0.0,69,0.00,,,0.00,0,Wunderground v.1.15,2013-09-09 07:59:00,
2013-09-09 01:05:00,65.4,54.6,29.78,ESE,103,0.0,0.0,68,0.00,,,0.00,0,Wunderground v.1.15,2013-09-09 08:05:00,
2013-09-09 01:11:00,65.0,54.6,29.78,ESE,103,0.0,0.0,69,0.00,,,0.00,0,Wunderground v.1.15,2013-09-09 08:11:00,
2013-09-09 01:17:00,64.7,54.3,29.78,ESE,104,0.0,0.0,69,0.00,,,0.00,0,Wunderground v.1.15,2013-09-09 08:17:00,
2013-09-09 01:22:00,64.7,54.3,29.78,ESE,104,0.0,0.0,69,0.00,,,0.00,0,Wunderground v.1.15,2013-09-09 08:22:00,
2013-09-09 01:27:00,64.5,54.1,29.78,ESE,104,0.0,0.0,69,0.00,,,0.00,0,Wunderground v.1.15,2013-09-09 08:27:00,
2013-09-09 01:33:00,64.5,53.7,29.78,SE,144,0.0,2.0,68,0.00,,,0.00,0,Wunderground v.1.15,2013-09-09 08:33:00,
2013-09-09 01:38:00,64.2,53.0,29.78,ESE,118,1.0,3.0,67,0.00,,,0.00,0,Wunderground v.1.15,2013-09-09 08:38:00,
2013-09-09 01:43:00,64.3,53.1,29.78,SE,136,1.0,1.0,67,0.00,,,0.00,0,Wunderground v.1.15,2013-09-09 08:43:00,
2013-09-09 01:49:00,64.1,52.9,29.77,ESE,123,0.0,0.0,67,0.00,,,0.00,0,Wunderground v.1.15,2013-09-09 08:49:00,
2013-09-09 01:54:00,64.0,53.2,29.77,ESE,123,0.0,0.0,68,0.00,,,0.00,0,Wunderground v.1.15,2013-09-09 08:54:00,
2013-09-09 01:59:00,64.1,52.1,29.78,SE,134,0.0,0.0,65,0.00,,,0.00,0,Wunderground v.1.15,2013-09-09 08:59:00,
2013-09-09 02:05:00,63.6,52.8,29.77,SE,133,0.0,0.0,68,0.00,,,0.00,0,Wunderground v.1.15,2013-09-09 09:05:00,
2013-09-09 02:10:00,63.6,52.4,29.77,SE,133,0.0,0.0,67,0.00,,,0.00,0,Wunderground v.1.15,2013-09-09 09:10:00,
2013-09-09 02:15:00,63.3,51.7,29.77,SE,134,0.0,0.0,66,0.00,,,0.00,0,Wunderground v.1.15,2013-09-09 09:15:00,
2013-09-09 02:20:00,63.3,52.6,29.77,SE,126,0.0,0.0,68,0.00,,,0.00,0,Wunderground v.1.15,2013-09-09 09:20:00,
2013-09-09 02:26:00,63.4,53.0,29.77,SE,126,0.0,0.0,69,0.00,,,0.00,0,Wunderground v.1.15,2013-09-09 09:26:00,
2013-09-09 02:31:00,63.1,52.4,29.77,ESE,123,0.0,1.0,68,0.00,,,0.00,0,Wunderground v.1.15,2013-09-09 09:31:00,
2013-09-09 02:37:00,63.4,51.8,29.76,ESE,119,0.0,1.0,66,0.00,,,0.00,0,Wunderground v.1.15,2013-09-09 09:37:00,
2013-09-09 02:42:00,63.6,52.4,29.76,ESE,119,0.0,0.0,67,0.00,,,0.00,0,Wunderground v.1.15,2013-09-09 09:42:00,
2013-09-09 02:48:00,63.7,51.3,29.76,ESE,119,0.0,0.0,64,0.00,,,0.00,0,Wunderground v.1.15,2013-09-09 09:48:00,
2013-09-09 02:54:00,63.5,52.3,29.76,ESE,119,0.0,0.0,67,0.00,,,0.00,0,Wunderground v.1.15,2013-09-09 09:54:00,
2013-09-09 02:59:00,63.2,52.1,29.76,ESE,121,0.0,0.0,67,0.00,,,0.00,0,Wunderground v.1.15,2013-09-09 09:59:00,
2013-09-09 03:05:00,63.1,52.0,29.77,East,101,0.0,0.0,67,0.00,,,0.00,0,Wunderground v.1.15,2013-09-09 10:05:00,
2013-09-09 03:10:00,63.2,52.1,29.76,East,101,0.0,0.0,67,0.00,,,0.00,0,Wunderground v.1.15,2013-09-09 10:10:00,
2013-09-09 03:16:00,63.4,52.2,29.76,East,101,0.0,0.0,67,0.00,,,0.00,0,Wunderground v.1.15,2013-09-09 10:16:00,
2013-09-09 03:21:00,63.5,51.9,29.76,East,101,0.0,0.0,66,0.00,,,0.00,0,Wunderground v.1.15,2013-09-09 10:21:00,
2013-09-09 03:26:00,63.3,52.2,29.76,East,101,0.0,0.0,67,0.00,,,0.00,0,Wunderground v.1.15,2013-09-09 10:26:00,
2013-09-09 03:32:00,63.5,52.3,29.76,East,101,0.0,0.0,67,0.00,,,0.00,0,Wunderground v.1.15,2013-09-09 10:32:00,
2013-09-09 03:38:00,63.1,52.4,29.76,East,101,0.0,0.0,68,0.00,,,0.00,0,Wunderground v.1.15,2013-09-09 10:38:00,
2013-09-09 03:43:00,62.9,52.6,29.76,East,101,0.0,0.0,69,0.00,,,0.00,0,Wunderground v.1.15,2013-09-09 10:43:00,
2013-09-09 03:48:00,62.8,52.9,29.76,ESE,110,0.0,1.0,70,0.00,,,0.00,0,Wunderground v.1.15,2013-09-09 10:48:00,
2013-09-09 03:54:00,63.0,53.1,29.76,ESE,110,0.0,0.0,70,0.00,,,0.00,0,Wunderground v.1.15,2013-09-09 10:54:00,
2013-09-09 03:59:00,63.0,52.7,29.76,ESE,115,0.0,0.0,69,0.00,,,0.00,0,Wunderground v.1.15,2013-09-09 10:59:00,
2013-09-09 04:04:00,62.8,53.3,29.76,ESE,117,0.0,1.0,71,0.00,,,0.00,0,Wunderground v.1.15,2013-09-09 11:04:00,
2013-09-09 04:10:00,63.4,53.8,29.76,ESE,117,0.0,0.0,71,0.00,,,0.00,0,Wunderground v.1.15,2013-09-09 11:10:00,
2013-09-09 04:15:00,63.7,54.1,29.76,ESE,117,0.0,0.0,71,0.00,,,0.00,0,Wunderground v.1.15,2013-09-09 11:15:00,
2013-09-09 04:21:00,63.9,53.9,29.76,ESE,117,0.0,0.0,70,0.00,,,0.00,0,Wunderground v.1.15,2013-09-09 11:21:00,
2013-09-09 04:26:00,63.4,54.2,29.76,SE,131,0.0,0.0,72,0.00,,,0.00,0,Wunderground v.1.15,2013-09-09 11:26:00,
2013-09-09 04:32:00,63.7,54.9,29.76,SE,131,0.0,1.0,73,0.00,,,0.00,0,Wunderground v.1.15,2013-09-09 11:32:00,
2013-09-09 04:38:00,64.2,56.1,29.76,SE,136,0.0,1.0,75,0.00,,,0.00,0,Wunderground v.1.15,2013-09-09 11:38:00,
2013-09-09 04:43:00,64.6,55.7,29.76,SE,136,0.0,0.0,73,0.00,,,0.00,0,Wunderground v.1.15,2013-09-09 11:43:00,
2013-09-09 04:49:00,65.1,56.6,29.76,SE,136,0.0,0.0,74,0.00,,,0.00,0,Wunderground v.1.15,2013-09-09 11:49:00,
2013-09-09 04:54:00,65.4,56.5,29.76,SE,136,0.0,0.0,73,0.00,,,0.00,0,Wunderground v.1.15,2013-09-09 11:54:00,
2013-09-09 04:59:00,65.5,55.8,29.76,SE,136,0.0,0.0,71,0.00,,,0.00,0,Wunderground v.1.15,2013-09-09 11:59:00,
2013-09-09 05:05:00,65.0,55.8,29.76,SE,136,0.0,0.0,72,0.00,,,0.00,0,Wunderground v.1.15,2013-09-09 12:05:00,
2013-09-09 05:10:00,65.3,56.8,29.76,SE,129,0.0,0.0,74,0.00,,,0.00,0,Wunderground v.1.15,2013-09-09 12:10:00,
2013-09-09 05:15:00,65.2,55.9,29.76,SE,129,0.0,0.0,72,0.00,,,0.00,0,Wunderground v.1.15,2013-09-09 12:15:00,
2013-09-09 05:21:00,65.0,56.5,29.76,SE,129,0.0,0.0,74,0.00,,,0.00,0,Wunderground v.1.15,2013-09-09 12:21:00,
2013-09-09 05:26:00,65.1,56.2,29.76,SE,125,0.0,0.0,73,0.00,,,0.00,0,Wunderground v.1.15,2013-09-09 12:26:00,
2013-09-09 05:31:00,65.1,56.6,29.76,WSW,244,0.0,1.0,74,0.00,,,0.00,0,Wunderground v.1.15,2013-09-09 12:31:00,
2013-09-09 05:36:00,65.1,56.6,29.76,WSW,244,0.0,1.0,74,0.00,,,0.00,0,Wunderground v.1.15,2013-09-09 12:36:00,
2013-09-09 05:42:00,64.8,56.3,29.77,SSW,194,0.0,0.0,74,0.00,,,0.00,0,Wunderground v.1.15,2013-09-09 12:42:00,
2013-09-09 05:47:00,64.5,56.4,29.77,South,180,0.0,0.0,75,0.00,,,0.00,0,Wunderground v.1.15,2013-09-09 12:47:00,
2013-09-09 05:52:00,65.0,56.5,29.77,South,180,0.0,0.0,74,0.00,,,0.00,0,Wunderground v.1.15,2013-09-09 12:52:00,
2013-09-09 05:58:00,65.3,56.0,29.78,South,180,0.0,0.0,72,0.00,,,0.00,0,Wunderground v.1.15,2013-09-09 12:58:00,
2013-09-09 06:03:00,64.9,56.0,29.77,South,180,0.0,0.0,73,0.00,,,0.00,0,Wunderground v.1.15,2013-09-09 13:03:00,
2013-09-09 06:08:00,64.7,56.2,29.77,South,190,0.0,0.0,74,0.00,,,0.00,0,Wunderground v.1.15,2013-09-09 13:08:00,
2013-09-09 06:14:00,65.0,56.5,29.77,South,190,0.0,0.0,74,0.00,,,0.00,0,Wunderground v.1.15,2013-09-09 13:14:00,
2013-09-09 06:19:00,64.8,56.3,29.77,South,190,0.0,0.0,74,0.00,,,0.00,0,Wunderground v.1.15,2013-09-09 13:19:00,
2013-09-09 06:24:00,64.6,56.5,29.77,South,190,0.0,0.0,75,0.00,,,0.00,0,Wunderground v.1.15,2013-09-09 13:24:00,
2013-09-09 06:30:00,64.7,56.6,29.77,South,176,0.0,0.0,75,0.00,,,0.00,0,Wunderground v.1.15,2013-09-09 13:30:00,
2013-09-09 06:35:00,64.9,56.0,29.77,South,175,0.0,0.0,73,0.00,,,0.00,0,Wunderground v.1.15,2013-09-09 13:35:00,
2013-09-09 06:40:00,64.5,56.0,29.77,SSW,199,0.0,0.0,74,0.00,,,0.00,7,Wunderground v.1.15,2013-09-09 13:40:00,
2013-09-09 06:46:00,64.2,56.1,29.77,South,189,0.0,0.0,75,0.00,,,0.00,11,Wunderground v.1.15,2013-09-09 13:46:00,
2013-09-09 06:51:00,64.5,56.4,29.77,ENE,73,0.0,0.0,75,0.00,,,0.00,14,Wunderground v.1.15,2013-09-09 13:51:00,
2013-09-09 06:56:00,64.6,56.1,29.77,SSE,150,0.0,0.0,74,0.00,,,0.00,19,Wunderground v.1.15,2013-09-09 13:56:00,
2013-09-09 07:02:00,64.7,56.6,29.77,SSE,150,0.0,0.0,75,0.00,,,0.00,26,Wunderground v.1.15,2013-09-09 14:02:00,
2013-09-09 07:07:00,65.2,56.7,29.77,SE,143,0.0,0.0,74,0.00,,,0.00,33,Wunderground v.1.15,2013-09-09 14:07:00,
2013-09-09 07:13:00,65.1,56.6,29.78,SE,130,0.0,2.0,74,0.00,,,0.00,40,Wunderground v.1.15,2013-09-09 14:13:00,
2013-09-09 07:18:00,65.3,56.8,29.78,SE,130,0.0,2.0,74,0.00,,,0.00,47,Wunderground v.1.15,2013-09-09 14:18:00,
2013-09-09 07:23:00,65.7,56.8,29.78,SE,130,0.0,0.0,73,0.00,,,0.00,54,Wunderground v.1.15,2013-09-09 14:23:00,
2013-09-09 07:29:00,66.2,57.3,29.78,SSE,148,0.0,0.0,73,0.00,,,0.00,62,Wunderground v.1.15,2013-09-09 14:29:00,
2013-09-09 07:34:00,66.5,57.6,29.78,SSW,193,0.0,0.0,73,0.00,,,0.00,67,Wunderground v.1.15,2013-09-09 14:34:00,
2013-09-09 07:39:00,66.6,57.7,29.78,SSW,210,0.0,0.0,73,0.00,,,0.00,76,Wunderground v.1.15,2013-09-09 14:39:00,
2013-09-09 07:45:00,66.9,58.0,29.78,SSW,210,0.0,0.0,73,0.00,,,0.00,93,Wunderground v.1.15,2013-09-09 14:45:00,
2013-09-09 07:50:00,67.2,58.6,29.78,SW,214,0.0,0.0,74,0.00,,,0.00,107,Wunderground v.1.15,2013-09-09 14:50:00,
2013-09-09 07:55:00,67.6,59.0,29.78,SW,229,0.0,0.0,74,0.00,,,0.00,86,Wunderground v.1.15,2013-09-09 14:55:00,
2013-09-09 08:01:00,67.9,59.3,29.78,SW,224,0.0,2.0,74,0.00,,,0.00,109,Wunderground v.1.15,2013-09-09 15:01:00,
2013-09-09 08:06:00,68.2,59.2,29.78,SSW,192,0.0,2.0,73,0.00,,,0.00,102,Wunderground v.1.15,2013-09-09 15:06:00,
2013-09-09 08:11:00,68.3,59.3,29.79,WSW,248,1.0,3.0,73,0.00,,,0.00,121,Wunderground v.1.15,2013-09-09 15:11:00,
2013-09-09 08:17:00,68.3,59.3,29.79,SSW,205,2.0,3.0,73,0.00,,,0.00,216,Wunderground v.1.15,2013-09-09 15:17:00,
2013-09-09 08:22:00,68.7,59.3,29.79,South,178,2.0,3.0,72,0.00,,,0.00,130,Wunderground v.1.15,2013-09-09 15:22:00,
2013-09-09 08:27:00,69.0,59.6,29.79,South,173,1.0,4.0,72,0.00,,,0.00,281,Wunderground v.1.15,2013-09-09 15:27:00,
2013-09-09 08:33:00,69.3,59.5,29.79,SW,218,1.0,2.0,71,0.00,,,0.00,290,Wunderground v.1.15,2013-09-09 15:33:00,
2013-09-09 08:38:00,69.3,59.5,29.80,South,190,1.0,2.0,71,0.00,,,0.00,269,Wunderground v.1.15,2013-09-09 15:38:00,
2013-09-09 08:43:00,69.6,59.8,29.80,South,180,1.0,3.0,71,0.00,,,0.00,338,Wunderground v.1.15,2013-09-09 15:43:00,
2013-09-09 08:49:00,70.5,59.8,29.80,South,184,1.0,2.0,69,0.00,,,0.00,357,Wunderground v.1.15,2013-09-09 15:49:00,
2013-09-09 08:54:00,70.6,59.9,29.80,South,185,1.0,2.0,69,0.00,,,0.00,373,Wunderground v.1.15,2013-09-09 15:54:00,
2013-09-09 08:59:00,70.9,59.8,29.80,SW,218,2.0,3.0,68,0.00,,,0.00,390,Wunderground v.1.15,2013-09-09 15:59:00,
2013-09-09 09:05:00,71.1,60.0,29.80,SSW,194,3.0,4.0,68,0.00,,,0.00,380,Wunderground v.1.15,2013-09-09 16:05:00,
2013-09-09 09:10:00,71.7,60.6,29.80,SSW,196,1.0,2.0,68,0.00,,,0.00,308,Wunderground v.1.15,2013-09-09 16:10:00,
2013-09-09 09:16:00,71.8,60.2,29.80,SSW,207,1.0,4.0,67,0.00,,,0.00,255,Wunderground v.1.15,2013-09-09 16:16:00,
2013-09-09 09:21:00,71.4,59.9,29.80,SSW,207,2.0,2.0,67,0.00,,,0.00,353,Wunderground v.1.15,2013-09-09 16:21:00,
2013-09-09 09:27:00,72.1,60.5,29.80,SSE,150,2.0,3.0,67,0.00,,,0.00,441,Wunderground v.1.15,2013-09-09 16:27:00,
2013-09-09 09:33:00,72.2,60.2,29.80,NNW,348,2.0,2.0,66,0.00,,,0.00,503,Wunderground v.1.15,2013-09-09 16:33:00,
2013-09-09 09:38:00,72.5,60.5,29.80,SSE,156,1.0,4.0,66,0.00,,,0.00,526,Wunderground v.1.15,2013-09-09 16:38:00,
2013-09-09 09:44:00,73.3,60.4,29.80,SW,224,2.0,5.0,64,0.00,,,0.00,543,Wunderground v.1.15,2013-09-09 16:44:00,
2013-09-09 09:49:00,73.2,60.3,29.80,WSW,239,3.0,3.0,64,0.00,,,0.00,554,Wunderground v.1.15,2013-09-09 16:49:00,
2013-09-09 09:54:00,73.5,60.1,29.80,South,188,2.0,3.0,63,0.00,,,0.00,573,Wunderground v.1.15,2013-09-09 16:54:00,
2013-09-09 09:59:00,74.2,60.3,29.80,SW,223,2.0,4.0,62,0.00,,,0.00,596,Wunderground v.1.15,2013-09-09 16:59:00,
2013-09-09 10:05:00,74.6,60.3,29.80,West,273,2.0,4.0,61,0.00,,,0.00,399,Wunderground v.1.15,2013-09-09 17:05:00,
2013-09-09 10:10:00,74.4,60.1,29.80,South,183,2.0,3.0,61,0.00,,,0.00,279,Wunderground v.1.15,2013-09-09 17:10:00,
2013-09-09 10:16:00,75.1,60.3,29.80,SSW,209,2.0,5.0,60,0.00,,,0.00,626,Wunderground v.1.15,2013-09-09 17:16:00,
2013-09-09 10:21:00,75.0,60.2,29.80,SE,132,2.0,3.0,60,0.00,,,0.00,622,Wunderground v.1.15,2013-09-09 17:21:00,
2013-09-09 10:26:00,75.7,60.8,29.80,SE,133,2.0,6.0,60,0.00,,,0.00,598,Wunderground v.1.15,2013-09-09 17:26:00,
2013-09-09 10:32:00,76.4,60.5,29.80,SSW,192,2.0,2.0,58,0.00,,,0.00,635,Wunderground v.1.15,2013-09-09 17:32:00,
2013-09-09 10:37:00,76.9,60.0,29.79,SW,232,1.0,4.0,56,0.00,,,0.00,633,Wunderground v.1.15,2013-09-09 17:37:00,
2013-09-09 10:42:00,77.2,60.3,29.79,South,169,2.0,4.0,56,0.00,,,0.00,645,Wunderground v.1.15,2013-09-09 17:42:00,
2013-09-09 10:48:00,77.3,60.4,29.79,SSE,161,2.0,4.0,56,0.00,,,0.00,654,Wunderground v.1.15,2013-09-09 17:48:00,
2013-09-09 10:53:00,77.5,60.1,29.79,SW,218,2.0,4.0,55,0.00,,,0.00,659,Wunderground v.1.15,2013-09-09 17:53:00,
2013-09-09 10:58:00,77.8,60.3,29.79,SW,228,3.0,9.0,55,0.00,,,0.00,673,Wunderground v.1.15,2013-09-09 17:58:00,
2013-09-09 11:03:00,78.3,59.8,29.79,SW,233,4.0,6.0,53,0.00,,,0.00,684,Wunderground v.1.15,2013-09-09 18:03:00,
2013-09-09 11:09:00,78.2,58.6,29.79,WSW,249,4.0,4.0,51,0.00,,,0.00,664,Wunderground v.1.15,2013-09-09 18:09:00,
2013-09-09 11:14:00,78.4,59.3,29.79,SSW,196,3.0,4.0,52,0.00,,,0.00,700,Wunderground v.1.15,2013-09-09 18:14:00,
2013-09-09 11:19:00,79.4,59.1,29.79,SW,223,2.0,6.0,50,0.00,,,0.00,715,Wunderground v.1.15,2013-09-09 18:19:00,
2013-09-09 11:25:00,79.5,58.1,29.78,SW,216,3.0,7.0,48,0.00,,,0.00,744,Wunderground v.1.15,2013-09-09 18:25:00,
2013-09-09 11:30:00,79.7,58.3,29.78,SW,229,4.0,6.0,48,0.00,,,0.00,763,Wunderground v.1.15,2013-09-09 18:30:00,
2013-09-09 11:35:00,79.1,55.9,29.78,SSE,163,4.0,8.0,45,0.00,,,0.00,619,Wunderground v.1.15,2013-09-09 18:35:00,
2013-09-09 11:41:00,78.9,57.0,29.78,SSE,152,3.0,5.0,47,0.00,,,0.00,661,Wunderground v.1.15,2013-09-09 18:41:00,
2013-09-09 11:46:00,80.2,58.7,29.78,WSW,245,2.0,7.0,48,0.00,,,0.00,752,Wunderground v.1.15,2013-09-09 18:46:00,
2013-09-09 11:52:00,80.7,57.4,29.77,SE,145,4.0,7.0,45,0.00,,,0.00,772,Wunderground v.1.15,2013-09-09 18:52:00,
2013-09-09 11:57:00,80.8,58.1,29.77,SSE,159,5.0,7.0,46,0.00,,,0.00,710,Wunderground v.1.15,2013-09-09 18:57:00,
2013-09-09 12:02:00,81.2,57.8,29.77,West,271,3.0,4.0,45,0.00,,,0.00,649,Wunderground v.1.15,2013-09-09 19:02:00,
2013-09-09 12:28:00,81.9,57.8,29.76,WNW,284,5.0,10.0,44,0.00,,,0.00,786,Wunderground v.1.15,2013-09-09 19:28:00,
2013-09-09 12:33:00,81.9,57.8,29.77,West,273,5.0,8.0,44,0.00,,,0.00,773,Wunderground v.1.15,2013-09-09 19:33:00,
2013-09-09 12:39:00,83.2,57.7,29.77,WSW,246,4.0,5.0,42,0.00,,,0.00,784,Wunderground v.1.15,2013-09-09 19:39:00,
2013-09-09 12:44:00,83.1,58.9,29.76,SSW,208,4.0,8.0,44,0.00,,,0.00,779,Wunderground v.1.15,2013-09-09 19:44:00,
2013-09-09 12:49:00,83.4,58.6,29.76,West,281,4.0,5.0,43,0.00,,,0.00,772,Wunderground v.1.15,2013-09-09 19:49:00,
2013-09-09 12:54:00,83.3,58.5,29.76,West,277,5.0,9.0,43,0.00,,,0.00,770,Wunderground v.1.15,2013-09-09 19:54:00,
2013-09-09 13:00:00,82.9,58.7,29.76,SSW,211,5.0,7.0,44,0.00,,,0.00,642,Wunderground v.1.15,2013-09-09 20:00:00,
2013-09-09 13:05:00,83.1,58.3,29.76,SW,232,4.0,7.0,43,0.00,,,0.00,782,Wunderground v.1.15,2013-09-09 20:05:00,
2013-09-09 13:10:00,83.2,57.7,29.76,SW,215,6.0,10.0,42,0.00,,,0.00,765,Wunderground v.1.15,2013-09-09 20:10:00,
2013-09-09 13:16:00,83.6,57.4,29.76,SSW,203,5.0,10.0,41,0.00,,,0.00,763,Wunderground v.1.15,2013-09-09 20:16:00,
2013-09-09 13:21:00,83.0,56.9,29.76,South,186,4.0,6.0,41,0.00,,,0.00,765,Wunderground v.1.15,2013-09-09 20:21:00,
2013-09-09 13:27:00,83.5,56.6,29.76,SSW,205,5.0,10.0,40,0.00,,,0.00,752,Wunderground v.1.15,2013-09-09 20:27:00,
2013-09-09 13:32:00,83.2,56.4,29.76,SW,228,5.0,9.0,40,0.00,,,0.00,756,Wunderground v.1.15,2013-09-09 20:32:00,
2013-09-09 13:37:00,82.5,55.0,29.75,SE,139,6.0,9.0,39,0.00,,,0.00,721,Wunderground v.1.15,2013-09-09 20:37:00,
2013-09-09 13:43:00,82.9,53.2,29.75,SW,217,4.0,10.0,36,0.00,,,0.00,744,Wunderground v.1.15,2013-09-09 20:43:00,
2013-09-09 13:48:00,83.1,52.6,29.75,West,268,5.0,10.0,35,0.00,,,0.00,737,Wunderground v.1.15,2013-09-09 20:48:00,
2013-09-09 13:53:00,82.7,53.8,29.75,SW,225,6.0,7.0,37,0.00,,,0.00,738,Wunderground v.1.15,2013-09-09 20:53:00,
2013-09-09 13:59:00,83.0,55.5,29.75,South,180,6.0,6.0,39,0.00,,,0.00,737,Wunderground v.1.15,2013-09-09 20:59:00,
2013-09-09 14:05:00,82.5,55.7,29.75,South,175,6.0,11.0,40,0.00,,,0.00,726,Wunderground v.1.15,2013-09-09 21:05:00,
2013-09-09 14:10:00,83.1,55.6,29.75,South,190,6.0,7.0,39,0.00,,,0.00,721,Wunderground v.1.15,2013-09-09 21:10:00,
2013-09-09 14:15:00,83.8,56.2,29.75,SW,219,4.0,7.0,39,0.00,,,0.00,710,Wunderground v.1.15,2013-09-09 21:15:00,
2013-09-09 14:21:00,83.1,56.3,29.75,SW,219,4.0,10.0,40,0.00,,,0.00,703,Wunderground v.1.15,2013-09-09 21:21:00,
2013-09-09 14:26:00,83.1,57.0,29.74,SSW,204,5.0,11.0,41,0.00,,,0.00,696,Wunderground v.1.15,2013-09-09 21:26:00,
2013-09-09 14:32:00,82.7,57.9,29.75,SSW,194,6.0,7.0,43,0.00,,,0.00,687,Wunderground v.1.15,2013-09-09 21:32:00,
2013-09-09 14:37:00,82.5,58.4,29.74,SSE,150,6.0,7.0,44,0.00,,,0.00,677,Wunderground v.1.15,2013-09-09 21:37:00,
2013-09-09 14:42:00,82.5,58.4,29.74,SSW,196,6.0,9.0,44,0.00,,,0.00,654,Wunderground v.1.15,2013-09-09 21:42:00,
2013-09-09 14:48:00,82.6,58.5,29.74,West,267,5.0,10.0,44,0.00,,,0.00,673,Wunderground v.1.15,2013-09-09 21:48:00,
2013-09-09 14:53:00,82.3,58.8,29.74,WSW,247,5.0,7.0,45,0.00,,,0.00,594,Wunderground v.1.15,2013-09-09 21:53:00,
2013-09-09 14:59:00,81.8,59.6,29.74,South,169,7.0,8.0,47,0.00,,,0.00,628,Wunderground v.1.15,2013-09-09 21:59:00,
2013-09-09 15:05:00,82.0,59.2,29.74,SW,214,7.0,11.0,46,0.00,,,0.00,615,Wunderground v.1.15,2013-09-09 22:05:00,
2013-09-09 15:10:00,81.4,59.8,29.74,SSW,193,7.0,8.0,48,0.00,,,0.00,605,Wunderground v.1.15,2013-09-09 22:10:00,
2013-09-09 15:15:00,82.0,59.2,29.74,SE,133,6.0,8.0,46,0.00,,,0.00,589,Wunderground v.1.15,2013-09-09 22:15:00,
2013-09-09 15:21:00,81.9,59.1,29.73,WNW,282,5.0,8.0,46,0.00,,,0.00,580,Wunderground v.1.15,2013-09-09 22:21:00,
2013-09-09 15:26:00,81.6,58.8,29.73,SW,227,5.0,8.0,46,0.00,,,0.00,563,Wunderground v.1.15,2013-09-09 22:26:00,
2013-09-09 15:31:00,81.9,59.1,29.73,SW,228,5.0,10.0,46,0.00,,,0.00,550,Wunderground v.1.15,2013-09-09 22:31:00,
2013-09-09 15:37:00,81.5,59.3,29.73,SSW,213,6.0,11.0,47,0.00,,,0.00,540,Wunderground v.1.15,2013-09-09 22:37:00,
2013-09-09 15:42:00,81.4,58.6,29.73,SSW,211,7.0,10.0,46,0.00,,,0.00,526,Wunderground v.1.15,2013-09-09 22:42:00,
2013-09-09 15:47:00,81.2,58.5,29.73,SW,229,6.0,10.0,46,0.00,,,0.00,513,Wunderground v.1.15,2013-09-09 22:47:00,
2013-09-09 15:53:00,81.4,57.4,29.73,WSW,250,6.0,8.0,44,0.00,,,0.00,499,Wunderground v.1.15,2013-09-09 22:53:00,
2013-09-09 15:58:00,81.5,58.1,29.73,South,188,5.0,13.0,45,0.00,,,0.00,485,Wunderground v.1.15,2013-09-09 22:58:00,
2013-09-09 16:03:00,81.5,58.1,29.72,SSW,207,6.0,8.0,45,0.00,,,0.00,478,Wunderground v.1.15,2013-09-09 23:03:00,
2013-09-09 16:08:00,81.5,57.5,29.72,WSW,249,6.0,9.0,44,0.00,,,0.00,462,Wunderground v.1.15,2013-09-09 23:08:00,
2013-09-09 16:14:00,81.4,58.0,29.72,SW,220,6.0,9.0,45,0.00,,,0.00,445,Wunderground v.1.15,2013-09-09 23:14:00,
2013-09-09 16:19:00,81.4,58.0,29.72,SSW,208,6.0,7.0,45,0.00,,,0.00,424,Wunderground v.1.15,2013-09-09 23:19:00,
2013-09-09 16:25:00,80.8,58.1,29.72,WSW,251,6.0,8.0,46,0.00,,,0.00,406,Wunderground v.1.15,2013-09-09 23:25:00,
2013-09-09 16:30:00,80.6,58.5,29.72,SW,234,6.0,9.0,47,0.00,,,0.00,388,Wunderground v.1.15,2013-09-09 23:30:00,
2013-09-09 16:35:00,80.7,59.2,29.72,SSW,194,6.0,9.0,48,0.00,,,0.00,373,Wunderground v.1.15,2013-09-09 23:35:00,
2013-09-09 16:40:00,80.7,59.2,29.73,WSW,251,6.0,9.0,48,0.00,,,0.00,359,Wunderground v.1.15,2013-09-09 23:40:00,
2013-09-09 16:46:00,80.2,59.3,29.72,South,188,6.0,9.0,49,0.00,,,0.00,341,Wunderground v.1.15,2013-09-09 23:46:00,
2013-09-09 16:51:00,79.8,58.9,29.72,South,170,5.0,6.0,49,0.00,,,0.00,325,Wunderground v.1.15,2013-09-09 23:51:00,
2013-09-09 16:57:00,79.5,59.2,29.72,SW,222,6.0,10.0,50,0.00,,,0.00,309,Wunderground v.1.15,2013-09-09 23:57:00,
2013-09-09 17:02:00,79.3,59.0,29.72,WSW,247,6.0,10.0,50,0.00,,,0.00,294,Wunderground v.1.15,2013-09-10 00:02:00,
2013-09-09 17:07:00,78.8,59.1,29.73,SW,229,5.0,10.0,51,0.00,,,0.00,279,Wunderground v.1.15,2013-09-10 00:07:00,
2013-09-09 17:13:00,78.7,59.0,29.73,West,275,5.0,9.0,51,0.00,,,0.00,264,Wunderground v.1.15,2013-09-10 00:13:00,
2013-09-09 17:18:00,78.4,59.3,29.73,SE,146,5.0,9.0,52,0.00,,,0.00,246,Wunderground v.1.15,2013-09-10 00:18:00,
2013-09-09 17:23:00,78.1,59.0,29.73,SE,145,5.0,8.0,52,0.00,,,0.00,227,Wunderground v.1.15,2013-09-10 00:23:00,
2013-09-09 17:29:00,77.5,58.5,29.73,WSW,255,5.0,5.0,52,0.00,,,0.00,213,Wunderground v.1.15,2013-09-10 00:29:00,
2013-09-09 17:34:00,77.2,58.7,29.73,SW,232,4.0,7.0,53,0.00,,,0.00,197,Wunderground v.1.15,2013-09-10 00:34:00,
2013-09-09 17:39:00,77.1,59.2,29.73,WSW,241,4.0,7.0,54,0.00,,,0.00,178,Wunderground v.1.15,2013-09-10 00:39:00,
2013-09-09 17:45:00,76.8,58.9,29.73,SW,233,5.0,10.0,54,0.00,,,0.00,158,Wunderground v.1.15,2013-09-10 00:45:00,
2013-09-09 17:50:00,76.7,59.3,29.73,SW,222,5.0,5.0,55,0.00,,,0.00,141,Wunderground v.1.15,2013-09-10 00:50:00,
2013-09-09 17:55:00,76.6,59.2,29.73,SW,233,4.0,10.0,55,0.00,,,0.00,125,Wunderground v.1.15,2013-09-10 00:55:00,
2013-09-09 18:01:00,76.3,59.4,29.73,SW,221,4.0,7.0,56,0.00,,,0.00,111,Wunderground v.1.15,2013-09-10 01:01:00,
2013-09-09 18:06:00,76.1,59.3,29.74,ESE,111,3.0,7.0,56,0.00,,,0.00,97,Wunderground v.1.15,2013-09-10 01:06:00,
2013-09-09 18:11:00,75.7,58.9,29.74,SE,129,2.0,4.0,56,0.00,,,0.00,84,Wunderground v.1.15,2013-09-10 01:11:00,
2013-09-09 18:16:00,75.3,59.0,29.74,WSW,252,2.0,5.0,57,0.00,,,0.00,72,Wunderground v.1.15,2013-09-10 01:16:00,
2013-09-09 18:22:00,74.9,59.1,29.74,SSW,200,2.0,6.0,58,0.00,,,0.00,54,Wunderground v.1.15,2013-09-10 01:22:00,
2013-09-09 18:27:00,74.5,59.2,29.74,ESE,115,3.0,6.0,59,0.00,,,0.00,53,Wunderground v.1.15,2013-09-10 01:27:00,
2013-09-09 18:32:00,74.1,58.9,29.74,SE,142,3.0,7.0,59,0.00,,,0.00,44,Wunderground v.1.15,2013-09-10 01:32:00,
2013-09-09 18:38:00,74.0,59.2,29.74,SE,137,2.0,7.0,60,0.00,,,0.00,40,Wunderground v.1.15,2013-09-10 01:38:00,
2013-09-09 18:43:00,73.8,59.0,29.75,SW,221,2.0,3.0,60,0.00,,,0.00,35,Wunderground v.1.15,2013-09-10 01:43:00,
2013-09-09 18:49:00,73.4,59.1,29.75,SSW,202,3.0,3.0,61,0.00,,,0.00,25,Wunderground v.1.15,2013-09-10 01:49:00,
2013-09-09 18:54:00,73.4,59.1,29.75,SW,218,2.0,3.0,61,0.00,,,0.00,18,Wunderground v.1.15,2013-09-10 01:54:00,
2013-09-09 18:59:00,73.2,58.9,29.75,SE,128,1.0,1.0,61,0.00,,,0.00,12,Wunderground v.1.15,2013-09-10 01:59:00,
2013-09-09 19:05:00,73.0,58.8,29.75,SW,227,1.0,4.0,61,0.00,,,0.00,7,Wunderground v.1.15,2013-09-10 02:05:00,
2013-09-09 19:10:00,72.7,58.9,29.75,East,86,1.0,2.0,62,0.00,,,0.00,0,Wunderground v.1.15,2013-09-10 02:10:00,
2013-09-09 19:15:00,72.2,58.9,29.75,SSW,209,1.0,3.0,63,0.00,,,0.00,0,Wunderground v.1.15,2013-09-10 02:15:00,
2013-09-09 19:21:00,71.9,59.1,29.76,West,259,2.0,4.0,64,0.00,,,0.00,0,Wunderground v.1.15,2013-09-10 02:21:00,
2013-09-09 19:26:00,71.7,58.9,29.76,SW,216,2.0,4.0,64,0.00,,,0.00,0,Wunderground v.1.15,2013-09-10 02:26:00,
2013-09-09 19:31:00,71.6,59.2,29.76,West,277,2.0,2.0,65,0.00,,,0.00,0,Wunderground v.1.15,2013-09-10 02:31:00,
2013-09-09 19:37:00,71.4,59.4,29.76,SW,230,2.0,3.0,66,0.00,,,0.00,0,Wunderground v.1.15,2013-09-10 02:37:00,
2013-09-09 19:42:00,71.3,59.4,29.76,WSW,250,1.0,2.0,66,0.00,,,0.00,0,Wunderground v.1.15,2013-09-10 02:42:00,
2013-09-09 19:48:00,71.2,59.7,29.77,SW,221,1.0,2.0,67,0.00,,,0.00,0,Wunderground v.1.15,2013-09-10 02:48:00,
2013-09-09 19:53:00,71.0,59.5,29.77,West,259,0.0,1.0,67,0.00,,,0.00,0,Wunderground v.1.15,2013-09-10 02:53:00,
2013-09-09 19:58:00,71.0,59.5,29.77,SW,224,0.0,4.0,67,0.00,,,0.00,0,Wunderground v.1.15,2013-09-10 02:58:00,
2013-09-09 20:03:00,71.0,59.5,29.77,SSW,207,1.0,2.0,67,0.00,,,0.00,0,Wunderground v.1.15,2013-09-10 03:03:00,
2013-09-09 20:09:00,70.8,59.3,29.77,WSW,252,1.0,1.0,67,0.00,,,0.00,0,Wunderground v.1.15,2013-09-10 03:09:00,
2013-09-09 20:14:00,70.9,59.4,29.77,WSW,245,0.0,1.0,67,0.00,,,0.00,0,Wunderground v.1.15,2013-09-10 03:14:00,
2013-09-09 20:20:00,70.8,59.3,29.77,SSW,202,0.0,0.0,67,0.00,,,0.00,0,Wunderground v.1.15,2013-09-10 03:20:00,
2013-09-09 20:26:00,70.5,59.0,29.77,SW,232,0.0,3.0,67,0.00,,,0.00,0,Wunderground v.1.15,2013-09-10 03:26:00,
2013-09-09 20:31:00,70.4,58.9,29.77,SW,218,1.0,2.0,67,0.00,,,0.00,0,Wunderground v.1.15,2013-09-10 03:31:00,
2013-09-09 20:36:00,70.3,58.8,29.77,SSW,212,3.0,5.0,67,0.00,,,0.00,0,Wunderground v.1.15,2013-09-10 03:36:00,
2013-09-09 20:41:00,70.2,58.7,29.77,SW,221,3.0,3.0,67,0.00,,,0.00,0,Wunderground v.1.15,2013-09-10 03:41:00,
2013-09-09 20:47:00,70.1,58.6,29.77,SSW,198,2.0,3.0,67,0.00,,,0.00,0,Wunderground v.1.15,2013-09-10 03:47:00,
2013-09-09 20:52:00,70.0,58.5,29.77,SW,235,1.0,4.0,67,0.00,,,0.00,0,Wunderground v.1.15,2013-09-10 03:52:00,
2013-09-09 20:58:00,69.8,58.8,29.77,SW,214,2.0,5.0,68,0.00,,,0.00,0,Wunderground v.1.15,2013-09-10 03:58:00,
2013-09-09 21:01:00,69.7,58.7,29.77,SW,236,3.0,4.0,68,0.00,,,0.00,0,Wunderground v.1.15,2013-09-10 04:01:00,
2013-09-09 21:02:00,69.7,59.1,29.77,SSE,164,3.0,4.0,69,0.00,,,0.00,0,Wunderground v.1.15,2013-09-10 04:02:00,
2013-09-09 21:05:00,69.7,58.7,29.77,WSW,240,2.0,4.0,68,0.00,,,0.00,0,Wunderground v.1.15,2013-09-10 04:05:00,
2013-09-09 21:07:00,69.6,59.0,29.77,SW,217,2.0,4.0,69,0.00,,,0.00,0,Wunderground v.1.15,2013-09-10 04:07:00,
2013-09-09 21:09:00,69.5,58.9,29.77,SE,136,2.0,2.0,69,0.00,,,0.00,0,Wunderground v.1.15,2013-09-10 04:09:00,
2013-09-09 21:15:00,69.4,59.2,29.77,WSW,245,2.0,4.0,70,0.00,,,0.00,0,Wunderground v.1.15,2013-09-10 04:15:00,
2013-09-09 21:20:00,69.2,59.4,29.78,SW,224,1.0,1.0,71,0.00,,,0.00,0,Wunderground v.1.15,2013-09-10 04:20:00,
2013-09-09 21:26:00,69.3,59.5,29.79,SW,224,1.0,1.0,71,0.00,,,0.00,0,Wunderground v.1.15,2013-09-10 04:26:00,
2013-09-09 21:30:00,69.4,59.6,29.78,SSE,152,0.0,0.0,71,0.00,,,0.00,0,Wunderground v.1.15,2013-09-10 04:30:00,
2013-09-09 21:35:00,69.3,59.5,29.78,SSE,150,0.0,0.0,71,0.00,,,0.00,0,Wunderground v.1.15,2013-09-10 04:35:00,
2013-09-09 21:40:00,69.0,59.2,29.79,ESE,113,0.0,0.0,71,0.00,,,0.00,0,Wunderground v.1.15,2013-09-10 04:40:00,
2013-09-09 21:46:00,68.6,59.2,29.79,SE,139,0.0,0.0,72,0.00,,,0.00,0,Wunderground v.1.15,2013-09-10 04:46:00,
2013-09-09 21:51:00,68.4,59.0,29.79,SE,139,0.0,0.0,72,0.00,,,0.00,0,Wunderground v.1.15,2013-09-10 04:51:00,
2013-09-09 21:57:00,68.2,59.2,29.79,SE,141,0.0,7.0,73,0.00,,,0.00,0,Wunderground v.1.15,2013-09-10 04:57:00,
2013-09-09 22:02:00,68.0,59.4,29.78,SSW,209,0.0,0.0,74,0.00,,,0.00,0,Wunderground v.1.15,2013-09-10 05:02:00,
2013-09-09 22:08:00,67.8,59.2,29.78,WSW,246,1.0,6.0,74,0.00,,,0.00,0,Wunderground v.1.15,2013-09-10 05:08:00,
2013-09-09 22:13:00,67.8,59.6,29.78,West,279,1.0,1.0,75,0.00,,,0.00,0,Wunderground v.1.15,2013-09-10 05:13:00,
2013-09-09 22:18:00,68.0,59.4,29.78,SSW,195,0.0,1.0,74,0.00,,,0.00,0,Wunderground v.1.15,2013-09-10 05:18:00,
2013-09-09 22:23:00,67.9,59.3,29.78,SW,232,0.0,4.0,74,0.00,,,0.00,0,Wunderground v.1.15,2013-09-10 05:23:00,
2013-09-09 22:29:00,67.7,59.5,29.78,SW,224,1.0,1.0,75,0.00,,,0.00,0,Wunderground v.1.15,2013-09-10 05:29:00,
2013-09-09 22:34:00,67.6,59.4,29.78,West,275,1.0,2.0,75,0.00,,,0.00,0,Wunderground v.1.15,2013-09-10 05:34:00,
2013-09-09 22:39:00,67.6,59.4,29.78,WSW,251,1.0,1.0,75,0.00,,,0.00,0,Wunderground v.1.15,2013-09-10 05:39:00,
2013-09-09 22:45:00,67.4,59.6,29.78,WNW,298,0.0,2.0,76,0.00,,,0.00,0,Wunderground v.1.15,2013-09-10 05:45:00,
2013-09-09 22:50:00,67.3,59.5,29.78,West,264,0.0,0.0,76,0.00,,,0.00,0,Wunderground v.1.15,2013-09-10 05:50:00,
2013-09-09 22:55:00,67.4,59.6,29.78,WSW,251,0.0,2.0,76,0.00,,,0.00,0,Wunderground v.1.15,2013-09-10 05:55:00,
2013-09-09 23:01:00,67.5,59.7,29.78,WSW,248,0.0,1.0,76,0.00,,,0.00,0,Wunderground v.1.15,2013-09-10 06:01:00,
2013-09-09 23:06:00,67.4,59.9,29.78,West,267,0.0,1.0,77,0.00,,,0.00,0,Wunderground v.1.15,2013-09-10 06:06:00,
2013-09-09 23:12:00,67.6,59.8,29.79,WSW,240,0.0,0.0,76,0.00,,,0.00,0,Wunderground v.1.15,2013-09-10 06:12:00,
2013-09-09 23:17:00,67.3,59.8,29.79,SSW,211,0.0,3.0,77,0.00,,,0.00,0,Wunderground v.1.15,2013-09-10 06:17:00,
2013-09-09 23:22:00,67.0,59.5,29.79,SSW,211,1.0,1.0,77,0.00,,,0.00,0,Wunderground v.1.15,2013-09-10 06:22:00,
2013-09-09 23:28:00,66.8,59.4,29.80,SSW,211,0.0,1.0,77,0.00,,,0.00,0,Wunderground v.1.15,2013-09-10 06:28:00,
2013-09-09 23:33:00,66.5,59.4,29.79,SSW,211,0.0,0.0,78,0.00,,,0.00,0,Wunderground v.1.15,2013-09-10 06:33:00,
2013-09-09 23:38:00,66.6,59.5,29.80,SSW,211,0.0,0.0,78,0.00,,,0.00,0,Wunderground v.1.15,2013-09-10 06:38:00,
2013-09-09 23:44:00,66.6,59.2,29.80,SE,134,0.0,0.0,77,0.00,,,0.00,0,Wunderground v.1.15,2013-09-10 06:44:00,
2013-09-09 23:49:00,66.7,59.6,29.80,SE,138,0.0,0.0,78,0.00,,,0.00,0,Wunderground v.1.15,2013-09-10 06:49:00,
2013-09-09 23:54:00,66.5,59.1,29.80,SE,130,0.0,3.0,77,0.00,,,0.00,0,Wunderground v.1.15,2013-09-10 06:54:00,